sensor_id;sensor_type;location;lat;lon;timestamp;P1;durP1;ratioP1;P2;durP2;ratioP2
9836;SDS011;4957;51.412;6.724;2022-10-16T00:00:30;6.83;;;4.60;;
9836;SDS011;4957;51.412;6.724;2022-10-16T00:02:57;14.87;;;4.93;;
9836;SDS011;4957;51.412;6.724;2022-10-16T00:05:23;10.37;;;4.13;;
9836;SDS011;4957;51.412;6.724;2022-10-16T00:07:48;8.83;;;4.00;;
9836;SDS011;4957;51.412;6.724;2022-10-16T00:10:14;10.67;;;4.60;;
9836;SDS011;4957;51.412;6.724;2022-10-16T00:12:40;5.57;;;4.07;;
9836;SDS011;4957;51.412;6.724;2022-10-16T00:15:06;8.63;;;4.10;;
9836;SDS011;4957;51.412;6.724;2022-10-16T00:17:32;10.00;;;4.70;;
9836;SDS011;4957;51.412;6.724;2022-10-16T00:19:57;8.93;;;4.03;;
9836;SDS011;4957;51.412;6.724;2022-10-16T00:22:23;8.00;;;3.63;;
9836;SDS011;4957;51.412;6.724;2022-10-16T00:24:49;8.03;;;4.40;;
9836;SDS011;4957;51.412;6.724;2022-10-16T00:27:14;8.07;;;3.37;;
9836;SDS011;4957;51.412;6.724;2022-10-16T00:29:41;9.20;;;3.80;;
9836;SDS011;4957;51.412;6.724;2022-10-16T00:32:07;15.67;;;3.90;;
9836;SDS011;4957;51.412;6.724;2022-10-16T00:34:33;6.17;;;3.13;;
9836;SDS011;4957;51.412;6.724;2022-10-16T00:36:58;8.10;;;3.40;;
9836;SDS011;4957;51.412;6.724;2022-10-16T00:39:24;6.10;;;3.07;;
9836;SDS011;4957;51.412;6.724;2022-10-16T00:41:50;7.70;;;3.10;;
9836;SDS011;4957;51.412;6.724;2022-10-16T00:47:09;3.87;;;2.70;;
9836;SDS011;4957;51.412;6.724;2022-10-16T00:49:38;6.90;;;3.00;;
9836;SDS011;4957;51.412;6.724;2022-10-16T00:52:04;7.40;;;3.13;;
9836;SDS011;4957;51.412;6.724;2022-10-16T00:54:30;4.90;;;2.57;;
9836;SDS011;4957;51.412;6.724;2022-10-16T00:56:58;6.17;;;2.50;;
9836;SDS011;4957;51.412;6.724;2022-10-16T00:59:27;6.23;;;2.77;;
9836;SDS011;4957;51.412;6.724;2022-10-16T01:01:55;5.23;;;2.73;;
9836;SDS011;4957;51.412;6.724;2022-10-16T01:04:22;4.43;;;2.70;;
9836;SDS011;4957;51.412;6.724;2022-10-16T01:15:04;5.50;;;2.67;;
9836;SDS011;4957;51.412;6.724;2022-10-16T01:23:09;7.17;;;2.50;;
9836;SDS011;4957;51.412;6.724;2022-10-16T01:25:47;3.13;;;2.33;;
9836;SDS011;4957;51.412;6.724;2022-10-16T01:29:16;4.77;;;2.70;;
9836;SDS011;4957;51.412;6.724;2022-10-16T01:31:34;4.73;;;2.50;;
9836;SDS011;4957;51.412;6.724;2022-10-16T01:34:06;5.50;;;2.73;;
9836;SDS011;4957;51.412;6.724;2022-10-16T01:36:51;4.27;;;2.90;;
9836;SDS011;4957;51.412;6.724;2022-10-16T01:39:24;6.53;;;2.43;;
9836;SDS011;4957;51.412;6.724;2022-10-16T01:41:55;7.53;;;3.03;;
9836;SDS011;4957;51.412;6.724;2022-10-16T01:44:51;6.33;;;3.60;;
9836;SDS011;4957;51.412;6.724;2022-10-16T01:47:18;10.53;;;4.23;;
9836;SDS011;4957;51.412;6.724;2022-10-16T01:49:47;7.63;;;4.30;;
9836;SDS011;4957;51.412;6.724;2022-10-16T01:52:15;12.47;;;3.90;;
9836;SDS011;4957;51.412;6.724;2022-10-16T01:54:45;10.03;;;4.60;;
9836;SDS011;4957;51.412;6.724;2022-10-16T01:57:13;6.77;;;4.27;;
9836;SDS011;4957;51.412;6.724;2022-10-16T01:59:42;8.90;;;4.50;;
9836;SDS011;4957;51.412;6.724;2022-10-16T02:02:12;8.20;;;4.33;;
9836;SDS011;4957;51.412;6.724;2022-10-16T02:04:44;15.13;;;4.70;;
9836;SDS011;4957;51.412;6.724;2022-10-16T02:07:14;10.20;;;5.37;;
9836;SDS011;4957;51.412;6.724;2022-10-16T02:09:41;9.30;;;6.20;;
9836;SDS011;4957;51.412;6.724;2022-10-16T02:12:14;12.23;;;6.70;;
9836;SDS011;4957;51.412;6.724;2022-10-16T02:14:46;9.03;;;6.33;;
9836;SDS011;4957;51.412;6.724;2022-10-16T02:17:14;10.87;;;7.00;;
9836;SDS011;4957;51.412;6.724;2022-10-16T02:19:41;23.73;;;10.10;;
9836;SDS011;4957;51.412;6.724;2022-10-16T02:22:08;17.80;;;9.87;;
9836;SDS011;4957;51.412;6.724;2022-10-16T02:24:46;19.50;;;10.80;;
9836;SDS011;4957;51.412;6.724;2022-10-16T02:27:27;16.97;;;9.93;;
9836;SDS011;4957;51.412;6.724;2022-10-16T02:32:44;12.20;;;7.27;;
9836;SDS011;4957;51.412;6.724;2022-10-16T02:35:12;13.77;;;8.63;;
9836;SDS011;4957;51.412;6.724;2022-10-16T02:37:40;16.30;;;7.43;;
9836;SDS011;4957;51.412;6.724;2022-10-16T02:40:06;15.47;;;7.10;;
9836;SDS011;4957;51.412;6.724;2022-10-16T02:42:34;12.83;;;7.13;;
9836;SDS011;4957;51.412;6.724;2022-10-16T02:45:01;12.63;;;8.20;;
9836;SDS011;4957;51.412;6.724;2022-10-16T02:47:28;18.57;;;9.33;;
9836;SDS011;4957;51.412;6.724;2022-10-16T02:49:54;21.97;;;8.97;;
9836;SDS011;4957;51.412;6.724;2022-10-16T02:52:20;14.93;;;8.27;;
9836;SDS011;4957;51.412;6.724;2022-10-16T02:54:45;15.77;;;8.10;;
9836;SDS011;4957;51.412;6.724;2022-10-16T02:57:11;14.80;;;6.70;;
9836;SDS011;4957;51.412;6.724;2022-10-16T02:59:37;9.17;;;6.33;;
9836;SDS011;4957;51.412;6.724;2022-10-16T03:02:02;10.07;;;6.10;;
9836;SDS011;4957;51.412;6.724;2022-10-16T03:04:28;11.47;;;6.40;;
9836;SDS011;4957;51.412;6.724;2022-10-16T03:06:54;9.57;;;5.73;;
9836;SDS011;4957;51.412;6.724;2022-10-16T03:09:19;9.97;;;4.73;;
9836;SDS011;4957;51.412;6.724;2022-10-16T03:11:45;8.80;;;6.30;;
9836;SDS011;4957;51.412;6.724;2022-10-16T03:14:10;19.37;;;7.30;;
9836;SDS011;4957;51.412;6.724;2022-10-16T03:16:36;11.70;;;5.90;;
9836;SDS011;4957;51.412;6.724;2022-10-16T03:19:02;12.37;;;5.20;;
9836;SDS011;4957;51.412;6.724;2022-10-16T03:21:28;10.00;;;4.97;;
9836;SDS011;4957;51.412;6.724;2022-10-16T03:23:53;12.97;;;4.67;;
9836;SDS011;4957;51.412;6.724;2022-10-16T03:26:19;9.60;;;4.63;;
9836;SDS011;4957;51.412;6.724;2022-10-16T03:28:44;8.20;;;4.70;;
9836;SDS011;4957;51.412;6.724;2022-10-16T03:31:10;10.07;;;4.17;;
9836;SDS011;4957;51.412;6.724;2022-10-16T03:33:36;12.47;;;4.70;;
9836;SDS011;4957;51.412;6.724;2022-10-16T03:36:01;10.00;;;4.13;;
9836;SDS011;4957;51.412;6.724;2022-10-16T03:38:27;10.07;;;5.33;;
9836;SDS011;4957;51.412;6.724;2022-10-16T03:40:53;12.53;;;4.43;;
9836;SDS011;4957;51.412;6.724;2022-10-16T03:43:18;13.53;;;4.60;;
9836;SDS011;4957;51.412;6.724;2022-10-16T03:45:44;13.67;;;5.00;;
9836;SDS011;4957;51.412;6.724;2022-10-16T03:48:09;11.60;;;4.80;;
9836;SDS011;4957;51.412;6.724;2022-10-16T03:50:35;14.23;;;5.10;;
9836;SDS011;4957;51.412;6.724;2022-10-16T03:53:01;9.73;;;5.37;;
9836;SDS011;4957;51.412;6.724;2022-10-16T03:55:27;13.63;;;5.70;;
9836;SDS011;4957;51.412;6.724;2022-10-16T03:57:53;8.73;;;5.57;;
9836;SDS011;4957;51.412;6.724;2022-10-16T04:00:18;13.33;;;5.33;;
9836;SDS011;4957;51.412;6.724;2022-10-16T04:02:44;15.33;;;5.13;;
9836;SDS011;4957;51.412;6.724;2022-10-16T04:05:11;14.73;;;4.40;;
9836;SDS011;4957;51.412;6.724;2022-10-16T04:07:36;7.60;;;3.80;;
9836;SDS011;4957;51.412;6.724;2022-10-16T04:10:03;10.80;;;3.60;;
9836;SDS011;4957;51.412;6.724;2022-10-16T04:12:29;8.37;;;3.83;;
9836;SDS011;4957;51.412;6.724;2022-10-16T04:14:55;7.03;;;3.60;;
9836;SDS011;4957;51.412;6.724;2022-10-16T04:17:20;6.47;;;3.30;;
9836;SDS011;4957;51.412;6.724;2022-10-16T04:19:46;9.37;;;3.57;;
9836;SDS011;4957;51.412;6.724;2022-10-16T04:22:12;9.53;;;3.50;;
9836;SDS011;4957;51.412;6.724;2022-10-16T04:24:37;10.03;;;3.60;;
9836;SDS011;4957;51.412;6.724;2022-10-16T04:27:03;7.80;;;3.83;;
9836;SDS011;4957;51.412;6.724;2022-10-16T04:29:28;8.63;;;4.00;;
9836;SDS011;4957;51.412;6.724;2022-10-16T04:31:54;9.13;;;4.07;;
9836;SDS011;4957;51.412;6.724;2022-10-16T04:34:20;10.40;;;4.07;;
9836;SDS011;4957;51.412;6.724;2022-10-16T04:36:49;10.87;;;6.83;;
9836;SDS011;4957;51.412;6.724;2022-10-16T04:39:15;12.50;;;6.87;;
9836;SDS011;4957;51.412;6.724;2022-10-16T04:41:41;16.17;;;6.57;;
9836;SDS011;4957;51.412;6.724;2022-10-16T04:44:06;10.83;;;6.00;;
9836;SDS011;4957;51.412;6.724;2022-10-16T04:46:32;11.63;;;6.03;;
9836;SDS011;4957;51.412;6.724;2022-10-16T04:48:58;10.27;;;5.70;;
9836;SDS011;4957;51.412;6.724;2022-10-16T04:51:24;10.17;;;5.47;;
9836;SDS011;4957;51.412;6.724;2022-10-16T04:53:50;11.93;;;5.47;;
9836;SDS011;4957;51.412;6.724;2022-10-16T04:56:16;12.27;;;4.83;;
9836;SDS011;4957;51.412;6.724;2022-10-16T04:58:42;14.53;;;4.83;;
9836;SDS011;4957;51.412;6.724;2022-10-16T05:01:07;9.20;;;4.37;;
9836;SDS011;4957;51.412;6.724;2022-10-16T05:03:33;8.73;;;4.03;;
9836;SDS011;4957;51.412;6.724;2022-10-16T05:05:58;10.00;;;4.03;;
9836;SDS011;4957;51.412;6.724;2022-10-16T05:08:24;7.73;;;4.20;;
9836;SDS011;4957;51.412;6.724;2022-10-16T05:10:50;11.00;;;4.53;;
9836;SDS011;4957;51.412;6.724;2022-10-16T05:13:15;12.80;;;4.63;;
9836;SDS011;4957;51.412;6.724;2022-10-16T05:15:41;10.30;;;4.70;;
9836;SDS011;4957;51.412;6.724;2022-10-16T05:18:08;10.13;;;4.40;;
9836;SDS011;4957;51.412;6.724;2022-10-16T05:20:33;13.23;;;5.20;;
9836;SDS011;4957;51.412;6.724;2022-10-16T05:22:59;12.47;;;5.00;;
9836;SDS011;4957;51.412;6.724;2022-10-16T05:25:25;11.27;;;4.50;;
9836;SDS011;4957;51.412;6.724;2022-10-16T05:27:50;10.30;;;4.73;;
9836;SDS011;4957;51.412;6.724;2022-10-16T05:30:17;6.60;;;4.50;;
9836;SDS011;4957;51.412;6.724;2022-10-16T05:32:49;6.43;;;4.37;;
9836;SDS011;4957;51.412;6.724;2022-10-16T05:35:16;6.20;;;3.97;;
9836;SDS011;4957;51.412;6.724;2022-10-16T05:37:42;7.20;;;4.03;;
9836;SDS011;4957;51.412;6.724;2022-10-16T05:40:08;14.53;;;4.93;;
9836;SDS011;4957;51.412;6.724;2022-10-16T05:42:35;9.97;;;4.70;;
9836;SDS011;4957;51.412;6.724;2022-10-16T05:45:00;9.33;;;4.50;;
9836;SDS011;4957;51.412;6.724;2022-10-16T05:47:26;14.83;;;5.20;;
9836;SDS011;4957;51.412;6.724;2022-10-16T05:49:52;17.67;;;5.80;;
9836;SDS011;4957;51.412;6.724;2022-10-16T05:52:18;13.30;;;5.97;;
9836;SDS011;4957;51.412;6.724;2022-10-16T05:54:43;12.27;;;6.03;;
9836;SDS011;4957;51.412;6.724;2022-10-16T05:57:09;10.20;;;5.03;;
9836;SDS011;4957;51.412;6.724;2022-10-16T05:59:35;10.00;;;5.10;;
9836;SDS011;4957;51.412;6.724;2022-10-16T06:02:00;10.03;;;5.03;;
9836;SDS011;4957;51.412;6.724;2022-10-16T06:04:26;10.07;;;4.97;;
9836;SDS011;4957;51.412;6.724;2022-10-16T06:06:52;11.53;;;5.20;;
9836;SDS011;4957;51.412;6.724;2022-10-16T06:09:17;11.10;;;5.17;;
9836;SDS011;4957;51.412;6.724;2022-10-16T06:11:43;11.87;;;5.43;;
9836;SDS011;4957;51.412;6.724;2022-10-16T06:14:08;16.63;;;5.50;;
9836;SDS011;4957;51.412;6.724;2022-10-16T06:16:34;12.40;;;5.80;;
9836;SDS011;4957;51.412;6.724;2022-10-16T06:19:02;14.10;;;6.30;;
9836;SDS011;4957;51.412;6.724;2022-10-16T06:21:31;14.60;;;5.73;;
9836;SDS011;4957;51.412;6.724;2022-10-16T06:23:57;13.13;;;6.20;;
9836;SDS011;4957;51.412;6.724;2022-10-16T06:26:25;10.80;;;4.97;;
9836;SDS011;4957;51.412;6.724;2022-10-16T06:28:53;9.30;;;5.37;;
9836;SDS011;4957;51.412;6.724;2022-10-16T06:31:20;17.27;;;6.30;;
9836;SDS011;4957;51.412;6.724;2022-10-16T06:33:49;14.73;;;5.83;;
9836;SDS011;4957;51.412;6.724;2022-10-16T06:36:16;15.00;;;6.07;;
9836;SDS011;4957;51.412;6.724;2022-10-16T06:38:42;13.13;;;5.73;;
9836;SDS011;4957;51.412;6.724;2022-10-16T06:41:12;13.40;;;6.43;;
9836;SDS011;4957;51.412;6.724;2022-10-16T06:43:40;14.33;;;6.47;;
9836;SDS011;4957;51.412;6.724;2022-10-16T06:46:07;18.00;;;6.00;;
9836;SDS011;4957;51.412;6.724;2022-10-16T06:48:35;13.33;;;5.33;;
9836;SDS011;4957;51.412;6.724;2022-10-16T06:51:05;9.93;;;5.00;;
9836;SDS011;4957;51.412;6.724;2022-10-16T06:53:34;13.30;;;5.13;;
9836;SDS011;4957;51.412;6.724;2022-10-16T06:56:33;8.20;;;5.07;;
9836;SDS011;4957;51.412;6.724;2022-10-16T06:58:52;10.53;;;3.90;;
9836;SDS011;4957;51.412;6.724;2022-10-16T07:01:19;8.67;;;3.90;;
9836;SDS011;4957;51.412;6.724;2022-10-16T07:03:47;7.00;;;3.63;;
9836;SDS011;4957;51.412;6.724;2022-10-16T07:06:15;7.23;;;3.60;;
9836;SDS011;4957;51.412;6.724;2022-10-16T07:08:43;5.10;;;3.43;;
9836;SDS011;4957;51.412;6.724;2022-10-16T07:11:11;7.83;;;3.50;;
9836;SDS011;4957;51.412;6.724;2022-10-16T07:13:39;4.57;;;3.13;;
9836;SDS011;4957;51.412;6.724;2022-10-16T07:16:07;7.90;;;3.70;;
9836;SDS011;4957;51.412;6.724;2022-10-16T07:18:35;7.03;;;3.10;;
9836;SDS011;4957;51.412;6.724;2022-10-16T07:21:08;6.30;;;3.40;;
9836;SDS011;4957;51.412;6.724;2022-10-16T07:23:36;5.83;;;2.90;;
9836;SDS011;4957;51.412;6.724;2022-10-16T07:26:03;4.53;;;3.27;;
9836;SDS011;4957;51.412;6.724;2022-10-16T07:28:29;4.27;;;2.83;;
9836;SDS011;4957;51.412;6.724;2022-10-16T07:30:59;4.77;;;3.20;;
9836;SDS011;4957;51.412;6.724;2022-10-16T07:33:29;3.43;;;3.10;;
9836;SDS011;4957;51.412;6.724;2022-10-16T07:35:55;5.70;;;3.20;;
9836;SDS011;4957;51.412;6.724;2022-10-16T07:38:21;4.90;;;2.77;;
9836;SDS011;4957;51.412;6.724;2022-10-16T07:40:47;5.70;;;2.53;;
9836;SDS011;4957;51.412;6.724;2022-10-16T07:43:13;6.50;;;3.43;;
9836;SDS011;4957;51.412;6.724;2022-10-16T07:45:48;5.20;;;3.10;;
9836;SDS011;4957;51.412;6.724;2022-10-16T07:48:15;12.10;;;3.50;;
9836;SDS011;4957;51.412;6.724;2022-10-16T07:50:41;4.50;;;3.10;;
9836;SDS011;4957;51.412;6.724;2022-10-16T07:53:07;4.77;;;3.13;;
9836;SDS011;4957;51.412;6.724;2022-10-16T07:55:33;9.83;;;3.47;;
9836;SDS011;4957;51.412;6.724;2022-10-16T07:57:58;4.87;;;2.93;;
9836;SDS011;4957;51.412;6.724;2022-10-16T08:00:24;8.33;;;3.53;;
9836;SDS011;4957;51.412;6.724;2022-10-16T08:02:50;7.03;;;3.20;;
9836;SDS011;4957;51.412;6.724;2022-10-16T08:05:15;4.63;;;2.93;;
9836;SDS011;4957;51.412;6.724;2022-10-16T08:07:41;7.90;;;3.37;;
9836;SDS011;4957;51.412;6.724;2022-10-16T08:10:19;6.17;;;3.73;;
9836;SDS011;4957;51.412;6.724;2022-10-16T08:12:46;6.73;;;2.97;;
9836;SDS011;4957;51.412;6.724;2022-10-16T08:15:12;6.87;;;3.53;;
9836;SDS011;4957;51.412;6.724;2022-10-16T08:17:38;6.47;;;3.17;;
9836;SDS011;4957;51.412;6.724;2022-10-16T08:20:04;4.20;;;3.00;;
9836;SDS011;4957;51.412;6.724;2022-10-16T08:22:30;5.37;;;3.00;;
9836;SDS011;4957;51.412;6.724;2022-10-16T08:24:56;6.60;;;3.10;;
9836;SDS011;4957;51.412;6.724;2022-10-16T08:27:21;8.30;;;2.93;;
9836;SDS011;4957;51.412;6.724;2022-10-16T08:29:48;6.83;;;3.00;;
9836;SDS011;4957;51.412;6.724;2022-10-16T08:32:14;6.50;;;3.43;;
9836;SDS011;4957;51.412;6.724;2022-10-16T08:34:40;8.83;;;3.13;;
9836;SDS011;4957;51.412;6.724;2022-10-16T08:37:06;5.10;;;2.77;;
9836;SDS011;4957;51.412;6.724;2022-10-16T08:39:33;5.80;;;2.83;;
9836;SDS011;4957;51.412;6.724;2022-10-16T08:47:44;3.60;;;2.77;;
9836;SDS011;4957;51.412;6.724;2022-10-16T08:50:18;8.03;;;3.27;;
9836;SDS011;4957;51.412;6.724;2022-10-16T08:52:52;8.50;;;3.33;;
9836;SDS011;4957;51.412;6.724;2022-10-16T08:55:24;11.30;;;4.10;;
9836;SDS011;4957;51.412;6.724;2022-10-16T08:58:10;3.53;;;2.90;;
9836;SDS011;4957;51.412;6.724;2022-10-16T09:00:39;5.57;;;2.77;;
9836;SDS011;4957;51.412;6.724;2022-10-16T09:03:11;5.57;;;3.00;;
9836;SDS011;4957;51.412;6.724;2022-10-16T09:05:52;10.00;;;3.37;;
9836;SDS011;4957;51.412;6.724;2022-10-16T09:11:14;4.67;;;2.87;;
9836;SDS011;4957;51.412;6.724;2022-10-16T09:14:28;4.90;;;2.90;;
9836;SDS011;4957;51.412;6.724;2022-10-16T09:26:00;5.90;;;2.70;;
9836;SDS011;4957;51.412;6.724;2022-10-16T09:28:28;5.20;;;3.20;;
9836;SDS011;4957;51.412;6.724;2022-10-16T09:30:53;4.83;;;2.80;;
9836;SDS011;4957;51.412;6.724;2022-10-16T09:33:21;6.90;;;3.10;;
9836;SDS011;4957;51.412;6.724;2022-10-16T09:35:53;9.57;;;3.10;;
9836;SDS011;4957;51.412;6.724;2022-10-16T09:38:21;2.73;;;2.10;;
9836;SDS011;4957;51.412;6.724;2022-10-16T09:40:49;7.60;;;2.07;;
9836;SDS011;4957;51.412;6.724;2022-10-16T09:48:51;6.73;;;1.90;;
9836;SDS011;4957;51.412;6.724;2022-10-16T09:52:02;2.20;;;1.53;;
9836;SDS011;4957;51.412;6.724;2022-10-16T09:54:17;6.63;;;1.67;;
9836;SDS011;4957;51.412;6.724;2022-10-16T09:56:45;7.20;;;1.70;;
9836;SDS011;4957;51.412;6.724;2022-10-16T09:59:15;2.57;;;1.47;;
9836;SDS011;4957;51.412;6.724;2022-10-16T10:04:15;4.50;;;1.60;;
9836;SDS011;4957;51.412;6.724;2022-10-16T10:06:47;4.83;;;1.70;;
9836;SDS011;4957;51.412;6.724;2022-10-16T10:09:23;4.50;;;1.70;;
9836;SDS011;4957;51.412;6.724;2022-10-16T10:11:55;5.10;;;1.53;;
9836;SDS011;4957;51.412;6.724;2022-10-16T10:14:26;1.87;;;1.37;;
9836;SDS011;4957;51.412;6.724;2022-10-16T10:17:07;5.67;;;1.13;;
9836;SDS011;4957;51.412;6.724;2022-10-16T10:19:37;2.10;;;1.20;;
9836;SDS011;4957;51.412;6.724;2022-10-16T10:33:23;2.53;;;1.10;;
9836;SDS011;4957;51.412;6.724;2022-10-16T10:39:12;1.67;;;0.90;;
9836;SDS011;4957;51.412;6.724;2022-10-16T10:46:55;1.80;;;1.10;;
9836;SDS011;4957;51.412;6.724;2022-10-16T11:00:44;4.40;;;1.20;;
9836;SDS011;4957;51.412;6.724;2022-10-16T11:08:31;3.77;;;1.13;;
9836;SDS011;4957;51.412;6.724;2022-10-16T11:17:34;1.87;;;1.33;;
9836;SDS011;4957;51.412;6.724;2022-10-16T11:21:08;3.07;;;1.17;;
9836;SDS011;4957;51.412;6.724;2022-10-16T11:26:01;4.70;;;1.20;;
9836;SDS011;4957;51.412;6.724;2022-10-16T11:31:08;0.97;;;0.70;;
9836;SDS011;4957;51.412;6.724;2022-10-16T11:36:44;2.00;;;0.93;;
9836;SDS011;4957;51.412;6.724;2022-10-16T11:39:19;3.10;;;0.90;;
9836;SDS011;4957;51.412;6.724;2022-10-16T11:42:03;2.93;;;1.00;;
9836;SDS011;4957;51.412;6.724;2022-10-16T11:44:48;1.67;;;0.80;;
9836;SDS011;4957;51.412;6.724;2022-10-16T11:49:53;2.63;;;1.17;;
9836;SDS011;4957;51.412;6.724;2022-10-16T11:52:28;5.80;;;1.57;;
9836;SDS011;4957;51.412;6.724;2022-10-16T11:55:06;4.53;;;1.20;;
9836;SDS011;4957;51.412;6.724;2022-10-16T11:58:04;3.57;;;1.47;;
9836;SDS011;4957;51.412;6.724;2022-10-16T12:06:19;1.17;;;1.07;;
9836;SDS011;4957;51.412;6.724;2022-10-16T12:08:51;3.03;;;1.87;;
9836;SDS011;4957;51.412;6.724;2022-10-16T12:11:30;3.90;;;1.70;;
9836;SDS011;4957;51.412;6.724;2022-10-16T12:16:38;5.43;;;1.23;;
9836;SDS011;4957;51.412;6.724;2022-10-16T12:19:15;2.10;;;1.10;;
9836;SDS011;4957;51.412;6.724;2022-10-16T12:21:44;4.97;;;0.97;;
9836;SDS011;4957;51.412;6.724;2022-10-16T12:26:57;4.10;;;1.00;;
9836;SDS011;4957;51.412;6.724;2022-10-16T12:29:32;3.33;;;0.90;;
9836;SDS011;4957;51.412;6.724;2022-10-16T12:34:54;2.67;;;1.13;;
9836;SDS011;4957;51.412;6.724;2022-10-16T12:37:20;4.00;;;1.57;;
9836;SDS011;4957;51.412;6.724;2022-10-16T12:39:49;1.80;;;1.20;;
9836;SDS011;4957;51.412;6.724;2022-10-16T12:42:22;3.47;;;1.10;;
9836;SDS011;4957;51.412;6.724;2022-10-16T12:44:58;4.33;;;1.30;;
9836;SDS011;4957;51.412;6.724;2022-10-16T12:49:56;3.10;;;1.17;;
9836;SDS011;4957;51.412;6.724;2022-10-16T12:52:26;2.30;;;1.03;;
9836;SDS011;4957;51.412;6.724;2022-10-16T12:54:58;1.13;;;0.90;;
9836;SDS011;4957;51.412;6.724;2022-10-16T13:00:21;3.70;;;0.90;;
9836;SDS011;4957;51.412;6.724;2022-10-16T13:03:21;1.67;;;1.00;;
9836;SDS011;4957;51.412;6.724;2022-10-16T13:11:26;1.43;;;1.03;;
9836;SDS011;4957;51.412;6.724;2022-10-16T13:14:24;4.93;;;1.30;;
9836;SDS011;4957;51.412;6.724;2022-10-16T13:17:10;1.90;;;0.83;;
9836;SDS011;4957;51.412;6.724;2022-10-16T13:20:03;3.50;;;1.30;;
9836;SDS011;4957;51.412;6.724;2022-10-16T13:28:12;1.77;;;1.00;;
9836;SDS011;4957;51.412;6.724;2022-10-16T13:30:40;4.37;;;0.90;;
9836;SDS011;4957;51.412;6.724;2022-10-16T13:33:10;3.00;;;1.00;;
9836;SDS011;4957;51.412;6.724;2022-10-16T13:35:50;2.97;;;0.90;;
9836;SDS011;4957;51.412;6.724;2022-10-16T13:41:06;1.83;;;1.20;;
9836;SDS011;4957;51.412;6.724;2022-10-16T13:43:50;5.30;;;1.50;;
9836;SDS011;4957;51.412;6.724;2022-10-16T13:46:19;3.83;;;1.43;;
9836;SDS011;4957;51.412;6.724;2022-10-16T13:48:56;2.80;;;1.33;;
9836;SDS011;4957;51.412;6.724;2022-10-16T13:51:22;3.97;;;1.03;;
9836;SDS011;4957;51.412;6.724;2022-10-16T13:53:48;2.13;;;1.00;;
9836;SDS011;4957;51.412;6.724;2022-10-16T13:56:15;5.07;;;1.13;;
9836;SDS011;4957;51.412;6.724;2022-10-16T13:58:46;2.50;;;0.93;;
9836;SDS011;4957;51.412;6.724;2022-10-16T14:01:24;1.83;;;0.87;;
9836;SDS011;4957;51.412;6.724;2022-10-16T14:03:52;4.03;;;1.00;;
9836;SDS011;4957;51.412;6.724;2022-10-16T14:06:19;2.10;;;1.00;;
9836;SDS011;4957;51.412;6.724;2022-10-16T14:08:50;3.83;;;1.20;;
9836;SDS011;4957;51.412;6.724;2022-10-16T14:11:24;2.07;;;1.00;;
9836;SDS011;4957;51.412;6.724;2022-10-16T14:13:50;1.60;;;0.87;;
9836;SDS011;4957;51.412;6.724;2022-10-16T14:16:21;1.63;;;1.00;;
9836;SDS011;4957;51.412;6.724;2022-10-16T14:18:58;1.37;;;0.80;;
9836;SDS011;4957;51.412;6.724;2022-10-16T14:21:27;2.50;;;1.10;;
9836;SDS011;4957;51.412;6.724;2022-10-16T14:23:53;2.40;;;1.17;;
9836;SDS011;4957;51.412;6.724;2022-10-16T14:26:20;2.23;;;0.97;;
9836;SDS011;4957;51.412;6.724;2022-10-16T14:29:01;2.30;;;1.20;;
9836;SDS011;4957;51.412;6.724;2022-10-16T14:31:38;3.27;;;0.63;;
9836;SDS011;4957;51.412;6.724;2022-10-16T14:34:22;4.13;;;1.60;;
9836;SDS011;4957;51.412;6.724;2022-10-16T14:36:53;3.63;;;1.00;;
9836;SDS011;4957;51.412;6.724;2022-10-16T14:39:23;2.17;;;1.00;;
9836;SDS011;4957;51.412;6.724;2022-10-16T14:41:51;3.10;;;1.30;;
9836;SDS011;4957;51.412;6.724;2022-10-16T14:44:18;2.93;;;1.43;;
9836;SDS011;4957;51.412;6.724;2022-10-16T14:46:53;2.97;;;1.53;;
9836;SDS011;4957;51.412;6.724;2022-10-16T14:49:19;1.80;;;1.30;;
9836;SDS011;4957;51.412;6.724;2022-10-16T14:51:45;2.10;;;1.43;;
9836;SDS011;4957;51.412;6.724;2022-10-16T14:54:12;2.10;;;0.93;;
9836;SDS011;4957;51.412;6.724;2022-10-16T14:56:47;2.63;;;1.07;;
9836;SDS011;4957;51.412;6.724;2022-10-16T14:59:35;4.37;;;1.20;;
9836;SDS011;4957;51.412;6.724;2022-10-16T15:02:45;2.53;;;0.97;;
9836;SDS011;4957;51.412;6.724;2022-10-16T15:04:54;2.50;;;1.03;;
9836;SDS011;4957;51.412;6.724;2022-10-16T15:07:20;4.37;;;1.53;;
9836;SDS011;4957;51.412;6.724;2022-10-16T15:09:46;2.40;;;1.20;;
9836;SDS011;4957;51.412;6.724;2022-10-16T15:12:12;2.40;;;1.30;;
9836;SDS011;4957;51.412;6.724;2022-10-16T15:14:38;1.87;;;1.10;;
9836;SDS011;4957;51.412;6.724;2022-10-16T15:17:03;2.77;;;1.20;;
9836;SDS011;4957;51.412;6.724;2022-10-16T15:19:29;4.00;;;1.33;;
9836;SDS011;4957;51.412;6.724;2022-10-16T15:21:55;3.43;;;1.10;;
9836;SDS011;4957;51.412;6.724;2022-10-16T15:24:21;2.73;;;1.17;;
9836;SDS011;4957;51.412;6.724;2022-10-16T15:26:47;4.73;;;2.63;;
9836;SDS011;4957;51.412;6.724;2022-10-16T15:29:13;2.50;;;1.70;;
9836;SDS011;4957;51.412;6.724;2022-10-16T15:31:39;3.10;;;1.30;;
9836;SDS011;4957;51.412;6.724;2022-10-16T15:34:08;2.50;;;1.53;;
9836;SDS011;4957;51.412;6.724;2022-10-16T15:36:35;2.23;;;1.20;;
9836;SDS011;4957;51.412;6.724;2022-10-16T15:39:12;4.07;;;1.57;;
9836;SDS011;4957;51.412;6.724;2022-10-16T15:41:43;5.03;;;1.70;;
9836;SDS011;4957;51.412;6.724;2022-10-16T15:44:15;2.23;;;1.30;;
9836;SDS011;4957;51.412;6.724;2022-10-16T15:46:44;5.47;;;1.60;;
9836;SDS011;4957;51.412;6.724;2022-10-16T15:49:10;2.53;;;1.60;;
9836;SDS011;4957;51.412;6.724;2022-10-16T15:51:40;5.27;;;1.90;;
9836;SDS011;4957;51.412;6.724;2022-10-16T15:54:07;5.90;;;1.90;;
9836;SDS011;4957;51.412;6.724;2022-10-16T15:56:33;2.77;;;1.67;;
9836;SDS011;4957;51.412;6.724;2022-10-16T15:59:01;4.33;;;1.57;;
9836;SDS011;4957;51.412;6.724;2022-10-16T16:01:28;3.00;;;1.83;;
9836;SDS011;4957;51.412;6.724;2022-10-16T16:03:56;1.57;;;1.10;;
9836;SDS011;4957;51.412;6.724;2022-10-16T16:06:22;1.70;;;1.27;;
9836;SDS011;4957;51.412;6.724;2022-10-16T16:08:49;2.77;;;1.40;;
9836;SDS011;4957;51.412;6.724;2022-10-16T16:11:15;5.23;;;1.93;;
9836;SDS011;4957;51.412;6.724;2022-10-16T16:13:42;10.73;;;1.70;;
9836;SDS011;4957;51.412;6.724;2022-10-16T16:16:15;5.20;;;1.60;;
9836;SDS011;4957;51.412;6.724;2022-10-16T16:18:41;2.60;;;1.30;;
9836;SDS011;4957;51.412;6.724;2022-10-16T16:21:09;3.03;;;1.60;;
9836;SDS011;4957;51.412;6.724;2022-10-16T16:23:36;1.50;;;1.17;;
9836;SDS011;4957;51.412;6.724;2022-10-16T16:28:38;3.00;;;1.10;;
9836;SDS011;4957;51.412;6.724;2022-10-16T16:31:04;4.93;;;2.27;;
9836;SDS011;4957;51.412;6.724;2022-10-16T16:33:30;2.27;;;1.57;;
9836;SDS011;4957;51.412;6.724;2022-10-16T16:36:00;5.97;;;1.73;;
9836;SDS011;4957;51.412;6.724;2022-10-16T16:38:27;5.10;;;1.57;;
9836;SDS011;4957;51.412;6.724;2022-10-16T16:40:53;5.17;;;1.40;;
9836;SDS011;4957;51.412;6.724;2022-10-16T16:43:20;7.77;;;2.00;;
9836;SDS011;4957;51.412;6.724;2022-10-16T16:45:48;5.37;;;1.80;;
9836;SDS011;4957;51.412;6.724;2022-10-16T16:48:14;5.67;;;1.57;;
9836;SDS011;4957;51.412;6.724;2022-10-16T16:50:39;7.93;;;1.90;;
9836;SDS011;4957;51.412;6.724;2022-10-16T16:53:05;3.87;;;1.87;;
9836;SDS011;4957;51.412;6.724;2022-10-16T16:55:32;8.87;;;2.53;;
9836;SDS011;4957;51.412;6.724;2022-10-16T16:57:58;6.33;;;2.30;;
9836;SDS011;4957;51.412;6.724;2022-10-16T17:00:23;9.40;;;2.90;;
9836;SDS011;4957;51.412;6.724;2022-10-16T17:02:49;9.83;;;2.80;;
9836;SDS011;4957;51.412;6.724;2022-10-16T17:05:15;10.20;;;3.40;;
9836;SDS011;4957;51.412;6.724;2022-10-16T17:07:43;7.33;;;3.80;;
9836;SDS011;4957;51.412;6.724;2022-10-16T17:10:09;13.03;;;5.80;;
9836;SDS011;4957;51.412;6.724;2022-10-16T17:12:35;8.80;;;2.30;;
9836;SDS011;4957;51.412;6.724;2022-10-16T17:15:00;6.57;;;2.90;;
9836;SDS011;4957;51.412;6.724;2022-10-16T17:17:26;7.83;;;3.90;;
9836;SDS011;4957;51.412;6.724;2022-10-16T17:19:52;7.20;;;3.90;;
9836;SDS011;4957;51.412;6.724;2022-10-16T17:22:18;6.50;;;3.80;;
9836;SDS011;4957;51.412;6.724;2022-10-16T17:24:47;39.17;;;22.03;;
9836;SDS011;4957;51.412;6.724;2022-10-16T17:27:14;12.10;;;6.63;;
9836;SDS011;4957;51.412;6.724;2022-10-16T17:29:40;10.23;;;6.20;;
9836;SDS011;4957;51.412;6.724;2022-10-16T17:32:06;22.13;;;11.93;;
9836;SDS011;4957;51.412;6.724;2022-10-16T17:34:32;11.60;;;8.23;;
9836;SDS011;4957;51.412;6.724;2022-10-16T17:37:09;15.13;;;7.10;;